Time;durP1;ratioP1;P1;durP2;ratioP2;P2;SDS_P1;SDS_P2;PMS_P1;PMS_P2;Temp;Humidity;BMP_temperature;BMP_pressure;BME280_temperature;BME280_humidity;BME280_pressure;Samples;Min_cycle;Max_cycle;Signal;HPM_P1;HPM_P2
2020/12/04 00:03:38;;;;;;;;;;;;;;;20.51;36.72;101051.63;5099891;28;652;-53
2020/12/04 00:06:04;;;;;;;;;;;;;;;20.02;37.71;101047.16;5098072;28;1917;-60
2020/12/04 00:08:29;;;;;;;;;;;;;;;20.01;37.72;101051.84;5099692;28;902;-59
2020/12/04 00:10:55;;;;;;;;;;;;;;;19.65;38.45;101060.41;5099511;28;1009;-60
2020/12/04 00:13:20;;;;;;;;;;;;;;;20.11;37.58;101060.03;5113375;28;1193;-56
2020/12/04 00:15:46;;;;;;;;;;;;;;;20.61;36.65;101068.06;5119860;28;786;-49
2020/12/04 00:18:11;;;;;;;;;;;;;;;20.14;37.42;101067.72;5119973;28;1015;-53
2020/12/04 00:20:37;;;;;;;;;;;;;;;19.68;38.50;101068.09;5119740;28;775;-48
2020/12/04 00:23:02;;;;;;;;;;;;;;;19.65;38.62;101071.44;5119808;28;827;-51
2020/12/04 00:25:27;;;;;;;;;;;;;;;20.44;37.19;101065.78;5106037;28;1914;-58
2020/12/04 00:27:53;;;;;;;;;;;;;;;20.25;37.17;101064.88;5078746;28;810;-53
2020/12/04 00:30:18;;;;;;;;;;;;;;;19.92;37.85;101075.66;5078962;28;763;-63
2020/12/04 00:32:44;;;;;;;;;;;;;;;19.68;38.31;101073.59;5079143;28;882;-59
2020/12/04 00:35:09;;;;;;;;;;;;;;;19.97;38.15;101067.34;5078406;28;795;-58
2020/12/04 00:37:35;;;;;;;;;;;;;;;20.70;36.68;101071.03;5078997;28;863;-58
2020/12/04 00:40:00;;;;;;;;;;;;;;;21.23;35.58;101072.03;5081813;28;965;-59
2020/12/04 00:42:26;;;;;;;;;;;;;;;20.65;36.55;101069.13;5080131;28;828;-60
2020/12/04 00:44:51;;;;;;;;;;;;;;;20.22;37.58;101068.22;5099380;28;771;-60
2020/12/04 00:47:17;;;;;;;;;;;;;;;19.52;38.89;101050.00;5099323;28;1905;-60
2020/12/04 00:49:42;;;;;;;;;;;;;;;19.79;38.45;101050.38;5097443;28;1089;-54
2020/12/04 00:52:08;;;;;;;;;;;;;;;20.60;37.03;101057.31;5080663;28;1293;-60
2020/12/04 00:54:34;;;;;;;;;;;;;;;20.29;37.59;101052.94;5097816;28;1152;-60
2020/12/04 00:57:01;;;;;;;;;;;;;;;19.92;38.28;101050.81;5097381;28;1114;-60
2020/12/04 00:59:34;;;;;;;;;;;;;;;19.52;38.90;101055.50;5097818;28;1235;-60
2020/12/04 01:02:00;;;;;;;;;;;;;;;19.99;38.25;101054.06;5097444;28;901;-60
2020/12/04 01:04:25;;;;;;;;;;;;;;;20.65;36.78;101054.47;5098257;28;752;-60
2020/12/04 01:06:51;;;;;;;;;;;;;;;20.04;37.96;101055.97;5098754;28;1902;-60
2020/12/04 01:09:16;;;;;;;;;;;;;;;19.78;38.44;101051.47;5098840;28;748;-62
2020/12/04 01:11:42;;;;;;;;;;;;;;;19.34;39.34;101055.09;5098251;28;1016;-59
2020/12/04 01:14:07;;;;;;;;;;;;;;;20.22;37.63;101062.72;5119150;28;778;-60
2020/12/04 01:16:32;;;;;;;;;;;;;;;20.36;37.12;101058.13;5118767;28;839;-58
2020/12/04 01:18:58;;;;;;;;;;;;;;;19.98;37.96;101053.25;5118279;28;1180;-60
2020/12/04 01:21:23;;;;;;;;;;;;;;;19.85;38.42;101047.56;5118860;28;775;-60
2020/12/04 01:23:52;;;;;;;;;;;;;;;19.08;39.87;101049.75;5118892;28;780;-60
2020/12/04 01:26:18;;;;;;;;;;;;;;;20.05;37.90;101046.56;5102740;28;1979;-60
2020/12/04 01:28:43;;;;;;;;;;;;;;;20.52;37.08;101048.56;5098301;28;743;-59
2020/12/04 01:31:09;;;;;;;;;;;;;;;19.99;38.12;101046.63;5098297;28;767;-58
2020/12/04 01:33:35;;;;;;;;;;;;;;;19.73;38.72;101043.22;5096508;28;795;-59
2020/12/04 01:36:00;;;;;;;;;;;;;;;19.34;39.30;101038.53;5098208;28;775;-59
2020/12/04 01:38:26;;;;;;;;;;;;;;;20.17;37.64;101039.56;5097854;28;898;-59
2020/12/04 01:40:56;;;;;;;;;;;;;;;20.50;36.78;101031.44;5097748;28;961;-60
2020/12/04 01:43:22;;;;;;;;;;;;;;;20.12;37.83;101047.06;5097886;28;831;-59
2020/12/04 01:45:47;;;;;;;;;;;;;;;19.78;38.62;101047.88;5096440;28;1914;-60
2020/12/04 01:48:12;;;;;;;;;;;;;;;19.61;38.90;101053.81;5097870;28;798;-59
2020/12/04 01:50:38;;;;;;;;;;;;;;;20.41;37.21;101044.28;5096442;28;752;-60
2020/12/04 01:53:04;;;;;;;;;;;;;;;20.27;37.28;101049.66;5097534;28;811;-60
2020/12/04 01:55:29;;;;;;;;;;;;;;;19.90;38.16;101040.06;5097346;28;949;-60
2020/12/04 01:57:55;;;;;;;;;;;;;;;19.52;39.10;101037.03;5079357;28;772;-60
2020/12/04 02:00:21;;;;;;;;;;;;;;;19.86;38.38;101039.00;5097488;28;870;-59
2020/12/04 02:02:46;;;;;;;;;;;;;;;20.68;36.69;101029.88;5097639;28;822;-58
2020/12/04 02:05:12;;;;;;;;;;;;;;;20.03;37.88;101027.53;5095891;28;1913;-59
2020/12/04 02:07:45;;;;;;;;;;;;;;;20.06;37.76;101026.13;5097309;28;771;-59
2020/12/04 02:10:30;;;;;;;;;;;;;;;19.28;39.49;101034.19;5096031;28;942;-59
2020/12/04 02:12:56;;;;;;;;;;;;;;;20.07;37.82;101034.13;5107608;28;1110;-59
2020/12/04 02:15:22;;;;;;;;;;;;;;;20.57;36.71;101033.06;5116405;28;854;-60
2020/12/04 02:17:47;;;;;;;;;;;;;;;20.15;37.67;101036.25;5109793;28;1174;-60
2020/12/04 02:20:12;;;;;;;;;;;;;;;19.85;38.25;101036.53;5095655;28;1223;-60
2020/12/04 02:22:38;;;;;;;;;;;;;;;19.83;38.41;101032.13;5097108;28;759;-60
2020/12/04 02:25:07;;;;;;;;;;;;;;;20.54;36.91;101025.31;5096721;28;1905;-59
2020/12/04 02:27:33;;;;;;;;;;;;;;;20.10;37.88;101028.00;5096796;28;751;-60
2020/12/04 02:29:58;;;;;;;;;;;;;;;19.92;38.09;101026.81;5096983;28;799;-58
2020/12/04 02:32:24;;;;;;;;;;;;;;;19.54;39.03;101028.47;5097158;28;786;-59
2020/12/04 02:34:49;;;;;;;;;;;;;;;19.77;38.73;101024.16;5096524;28;736;-60
2020/12/04 02:37:15;;;;;;;;;;;;;;;20.60;36.87;101021.41;5096883;28;799;-59
2020/12/04 02:39:40;;;;;;;;;;;;;;;20.11;37.79;101023.31;5096801;28;997;-59
2020/12/04 02:42:06;;;;;;;;;;;;;;;19.81;38.53;101025.25;5096356;28;827;-59
2020/12/04 02:44:31;;;;;;;;;;;;;;;19.46;39.28;101025.22;5096691;28;791;-60
2020/12/04 02:46:57;;;;;;;;;;;;;;;20.33;37.51;101029.16;5097138;28;1978;-60
2020/12/04 02:49:22;;;;;;;;;;;;;;;20.56;37.01;101023.09;5096396;28;779;-60
2020/12/04 02:51:48;;;;;;;;;;;;;;;19.77;38.68;101016.69;5096581;28;807;-60
2020/12/04 02:54:14;;;;;;;;;;;;;;;19.56;39.20;101017.97;5096671;28;803;-60
2020/12/04 02:56:39;;;;;;;;;;;;;;;19.61;38.96;101024.28;5096175;28;953;-56
2020/12/04 02:59:05;;;;;;;;;;;;;;;20.49;37.11;101018.75;5095005;28;824;-56
2020/12/04 03:01:30;;;;;;;;;;;;;;;20.12;37.79;101016.69;5096713;28;822;-60
2020/12/04 03:03:56;;;;;;;;;;;;;;;19.89;38.36;101010.81;5096124;28;810;-59
2020/12/04 03:06:21;;;;;;;;;;;;;;;19.51;39.21;101012.50;5094823;28;1914;-56
2020/12/04 03:08:46;;;;;;;;;;;;;;;19.89;38.63;101015.53;5095500;28;1105;-59
2020/12/04 03:11:12;;;;;;;;;;;;;;;20.79;36.47;101015.94;5095779;28;1001;-60
2020/12/04 03:13:37;;;;;;;;;;;;;;;19.96;38.26;101019.63;5112745;28;1078;-59
2020/12/04 03:16:03;;;;;;;;;;;;;;;19.81;38.56;101023.31;5116845;28;782;-56
2020/12/04 03:18:28;;;;;;;;;;;;;;;19.36;39.52;101017.00;5115041;28;979;-60
2020/12/04 03:20:54;;;;;;;;;;;;;;;20.10;38.07;101021.66;5116889;28;771;-60
2020/12/04 03:23:19;;;;;;;;;;;;;;;20.76;36.51;101017.38;5116664;28;759;-59
2020/12/04 03:25:45;;;;;;;;;;;;;;;20.16;37.64;101021.34;5108441;28;1917;-60
2020/12/04 03:28:10;;;;;;;;;;;;;;;20.03;37.99;101012.91;5100569;28;819;-60
2020/12/04 03:30:36;;;;;;;;;;;;;;;19.54;39.37;101014.69;5100578;28;1059;-59
2020/12/04 03:33:01;;;;;;;;;;;;;;;20.41;37.54;101011.13;5099977;28;815;-57
2020/12/04 03:35:26;;;;;;;;;;;;;;;20.52;36.99;101011.81;5100373;28;799;-59
2020/12/04 03:37:52;;;;;;;;;;;;;;;19.97;38.08;101014.91;5100482;28;771;-60
2020/12/04 03:40:17;;;;;;;;;;;;;;;19.56;38.88;101012.47;5099571;28;1024;-59
2020/12/04 03:42:43;;;;;;;;;;;;;;;19.64;39.05;101011.84;5100631;28;751;-59
2020/12/04 03:45:08;;;;;;;;;;;;;;;20.49;37.29;101012.41;5100135;28;1886;-60
2020/12/04 03:47:36;;;;;;;;;;;;;;;20.35;37.48;101013.09;5100057;28;842;-60
2020/12/04 03:50:02;;;;;;;;;;;;;;;19.95;38.16;101009.69;5100234;28;809;-61
2020/12/04 03:52:27;;;;;;;;;;;;;;;19.74;38.64;101010.94;5100035;28;751;-60
2020/12/04 03:54:53;;;;;;;;;;;;;;;19.80;38.74;101013.38;5099245;28;945;-60
2020/12/04 03:57:18;;;;;;;;;;;;;;;20.57;37.02;101008.19;5100051;28;811;-60
2020/12/04 03:59:43;;;;;;;;;;;;;;;20.00;38.44;101006.03;5099775;28;834;-59
2020/12/04 04:02:09;;;;;;;;;;;;;;;19.87;38.40;101007.53;5099686;28;771;-60
2020/12/04 04:04:34;;;;;;;;;;;;;;;19.38;39.55;101009.28;5100107;28;767;-60
2020/12/04 04:07:00;;;;;;;;;;;;;;;20.06;38.12;101004.03;5098039;28;1981;-60
2020/12/04 04:09:25;;;;;;;;;;;;;;;20.69;36.80;101005.81;5099492;28;775;-60
2020/12/04 04:11:51;;;;;;;;;;;;;;;20.13;38.12;101010.88;5100971;28;949;-60
2020/12/04 04:14:16;;;;;;;;;;;;;;;19.78;38.62;101003.72;5118700;28;855;-60
2020/12/04 04:16:41;;;;;;;;;;;;;;;19.27;40.09;101007.72;5119826;28;862;-56
2020/12/04 04:19:07;;;;;;;;;;;;;;;20.13;38.07;101004.50;5119926;28;1110;-60
2020/12/04 04:21:32;;;;;;;;;;;;;;;20.47;37.14;101015.47;5119773;28;827;-61
2020/12/04 04:23:58;;;;;;;;;;;;;;;20.04;38.38;101009.84;5120091;28;775;-57
2020/12/04 04:26:23;;;;;;;;;;;;;;;19.83;38.73;101012.81;5090047;28;1971;-60
2020/12/04 04:28:49;;;;;;;;;;;;;;;19.36;39.58;101013.44;5079003;28;759;-63
2020/12/04 04:31:14;;;;;;;;;;;;;;;20.14;38.12;101004.22;5077204;28;954;-59
2020/12/04 04:33:40;;;;;;;;;;;;;;;20.46;37.36;101001.97;5079214;28;776;-58
2020/12/04 04:36:05;;;;;;;;;;;;;;;19.93;38.56;101000.03;5078700;28;763;-60
2020/12/04 04:38:31;;;;;;;;;;;;;;;19.58;39.24;100996.47;5078690;28;764;-60
2020/12/04 04:40:57;;;;;;;;;;;;;;;19.99;38.34;101005.22;5089526;28;953;-60
2020/12/04 04:43:22;;;;;;;;;;;;;;;20.75;36.96;100990.84;5097441;28;815;-58
2020/12/04 04:45:48;;;;;;;;;;;;;;;20.06;38.26;100979.19;5098983;28;1965;-60
2020/12/04 04:48:13;;;;;;;;;;;;;;;19.93;38.51;100994.50;5099094;28;756;-58
2020/12/04 04:50:40;;;;;;;;;;;;;;;19.42;39.81;100990.22;5098870;28;755;-60
2020/12/04 04:53:06;;;;;;;;;;;;;;;20.34;37.89;100997.66;5098844;28;831;-60
2020/12/04 04:55:31;;;;;;;;;;;;;;;20.63;37.13;100990.41;5076730;28;1182;-59
2020/12/04 04:58:05;;;;;;;;;;;;;;;20.05;38.22;100994.94;5078591;28;783;-60
2020/12/04 05:00:31;;;;;;;;;;;;;;;19.66;39.22;100985.63;5078671;28;780;-61
2020/12/04 05:02:56;;;;;;;;;;;;;;;19.38;39.91;100995.50;5077354;28;791;-60
2020/12/04 05:05:23;;;;;;;;;;;;;;;20.45;37.81;100992.81;5078305;28;2021;-58
2020/12/04 05:07:49;;;;;;;;;;;;;;;20.26;37.78;100984.50;5077161;28;1311;-60
2020/12/04 05:10:15;;;;;;;;;;;;;;;19.91;38.61;100992.06;5082716;28;953;-62
2020/12/04 05:12:41;;;;;;;;;;;;;;;19.58;39.24;100989.00;5107125;28;1200;-61
2020/12/04 05:15:19;;;;;;;;;;;;;;;19.72;39.32;100991.09;5118883;28;874;-61
2020/12/04 05:18:05;;;;;;;;;;;;;;;20.77;37.13;100985.00;5118275;28;1475;-61
2020/12/04 05:20:31;;;;;;;;;;;;;;;20.09;38.54;100992.41;5117696;28;771;-62
2020/12/04 05:22:56;;;;;;;;;;;;;;;19.86;38.68;100991.28;5118230;28;736;-59
2020/12/04 05:25:22;;;;;;;;;;;;;;;19.25;40.21;100998.91;5112134;28;1909;-55
2020/12/04 05:27:48;;;;;;;;;;;;;;;20.27;38.18;101001.88;5098353;28;855;-61
2020/12/04 05:30:23;;;;;;;;;;;;;;;20.60;37.38;101005.63;5096585;28;898;-60
2020/12/04 05:32:59;;;;;;;;;;;;;;;20.01;38.47;101004.94;5096948;28;1246;-59
2020/12/04 05:35:24;;;;;;;;;;;;;;;19.70;39.09;101005.19;5098122;28;811;-57
2020/12/04 05:37:50;;;;;;;;;;;;;;;19.54;39.69;100996.19;5097597;28;819;-61
2020/12/04 05:40:22;;;;;;;;;;;;;;;20.58;37.39;100994.06;5096629;28;1001;-57
2020/12/04 05:42:48;;;;;;;;;;;;;;;20.26;37.81;100997.47;5097964;28;767;-60
2020/12/04 05:45:13;;;;;;;;;;;;;;;19.87;38.75;100998.44;5097339;28;1906;-60
2020/12/04 05:47:39;;;;;;;;;;;;;;;19.18;40.67;101001.16;5097437;28;811;-61
2020/12/04 05:50:05;;;;;;;;;;;;;;;19.61;40.46;101004.97;5096001;28;976;-59
2020/12/04 05:52:32;;;;;;;;;;;;;;;20.57;38.58;101003.47;5097379;28;767;-60
2020/12/04 05:54:58;;;;;;;;;;;;;;;20.05;39.48;101006.00;5097336;28;1044;-60
2020/12/04 05:57:23;;;;;;;;;;;;;;;20.01;39.25;101007.69;5096827;28;775;-60
2020/12/04 05:59:49;;;;;;;;;;;;;;;19.45;40.46;101014.50;5096311;28;842;-58
2020/12/04 06:02:14;;;;;;;;;;;;;;;20.38;38.81;101017.22;5097557;28;802;-55
2020/12/04 06:04:40;;;;;;;;;;;;;;;20.60;37.99;101013.94;5097649;28;801;-50
2020/12/04 06:07:06;;;;;;;;;;;;;;;20.17;38.85;101020.22;5097328;28;1914;-60
2020/12/04 06:09:31;;;;;;;;;;;;;;;19.86;39.39;101018.88;5095994;28;827;-55
2020/12/04 06:11:57;;;;;;;;;;;;;;;19.60;40.21;101027.31;5099571;28;949;-58
2020/12/04 06:14:22;;;;;;;;;;;;;;;20.60;38.26;101032.47;5116283;28;545;-59
2020/12/04 06:16:57;;;;;;;;;;;;;;;21.17;36.82;101027.03;5117809;28;859;-54
2020/12/04 06:19:25;;;;;;;;;;;;;;;20.85;37.36;101028.59;5117573;28;995;-60
2020/12/04 06:21:51;;;;;;;;;;;;;;;20.32;38.48;101046.03;5117477;28;774;-59
2020/12/04 06:24:16;;;;;;;;;;;;;;;19.72;40.00;101044.31;5117153;28;799;-60
2020/12/04 06:26:45;;;;;;;;;;;;;;;19.35;40.96;101053.16;5100227;28;1976;-62
2020/12/04 06:29:11;;;;;;;;;;;;;;;20.47;38.48;101051.38;5078539;28;805;-60
2020/12/04 06:31:36;;;;;;;;;;;;;;;20.46;38.36;101046.97;5096779;28;815;-61
2020/12/04 06:34:05;;;;;;;;;;;;;;;20.18;38.88;101046.69;5095789;28;882;-55
2020/12/04 06:36:31;;;;;;;;;;;;;;;19.66;39.98;101051.81;5095503;28;1362;-56
2020/12/04 06:38:57;;;;;;;;;;;;;;;19.35;41.16;101051.22;5096726;28;756;-56
2020/12/04 06:41:42;;;;;;;;;;;;;;;20.45;38.57;101050.84;5096475;28;1024;-58
2020/12/04 06:44:17;;;;;;;;;;;;;;;20.38;38.73;101049.56;5096340;28;1164;-64
2020/12/04 06:46:43;;;;;;;;;;;;;;;20.07;39.02;101044.34;5096641;28;1914;-61
2020/12/04 06:49:10;;;;;;;;;;;;;;;19.45;40.46;101053.09;5096762;28;740;-60
2020/12/04 06:51:36;;;;;;;;;;;;;;;20.10;39.15;101049.28;5096765;28;764;-60
2020/12/04 06:54:03;;;;;;;;;;;;;;;20.81;37.46;101053.22;5096618;28;747;-59
2020/12/04 06:56:28;;;;;;;;;;;;;;;20.09;38.99;101048.47;5094752;28;1273;-61
2020/12/04 06:58:54;;;;;;;;;;;;;;;20.06;39.14;101043.50;5095440;28;807;-61
2020/12/04 07:01:19;;;;;;;;;;;;;;;19.46;40.57;101046.44;5096642;28;799;-60
2020/12/04 07:03:45;;;;;;;;;;;;;;;20.39;38.55;101037.41;5095284;28;804;-58
2020/12/04 07:06:10;;;;;;;;;;;;;;;20.47;38.10;101042.28;5094908;28;1910;-59
2020/12/04 07:08:36;;;;;;;;;;;;;;;20.22;38.82;101043.38;5096073;28;764;-59
2020/12/04 07:11:01;;;;;;;;;;;;;;;19.85;39.74;101037.34;5096414;28;1020;-63
2020/12/04 07:13:27;;;;;;;;;;;;;;;20.05;39.45;101052.06;5103015;28;1055;-59
2020/12/04 07:15:58;;;;;;;;;;;;;;;20.86;37.73;101049.59;5095554;28;835;-61
2020/12/04 07:18:29;;;;;;;;;;;;;;;20.35;38.41;101048.19;5094090;28;1070;-62
2020/12/04 07:20:54;;;;;;;;;;;;;;;19.98;39.34;101039.44;5096364;28;786;-61
2020/12/04 07:23:20;;;;;;;;;;;;;;;19.44;40.78;101048.69;5094687;28;1333;-59
2020/12/04 07:25:45;;;;;;;;;;;;;;;20.59;38.04;101042.66;5095963;28;1974;-60
2020/12/04 07:28:11;;;;;;;;;;;;;;;20.42;38.32;101043.13;5095282;28;1383;-59
2020/12/04 07:34:12;;;;;;;;;;;;;;;19.36;40.79;101054.81;5096184;28;649;-59
2020/12/04 07:36:38;;;;;;;;;;;;;;;20.41;38.52;101063.63;5095860;28;803;-60
2020/12/04 07:39:03;;;;;;;;;;;;;;;20.57;38.20;101055.16;5094884;28;799;-60
2020/12/04 07:41:30;;;;;;;;;;;;;;;20.08;39.16;101052.34;5095493;28;1049;-61
2020/12/04 07:44:02;;;;;;;;;;;;;;;19.63;39.96;101060.69;5095561;28;851;-60
2020/12/04 07:46:28;;;;;;;;;;;;;;;20.00;39.41;101061.25;5096285;28;1959;-61
2020/12/04 07:49:01;;;;;;;;;;;;;;;20.76;37.92;101058.81;5095719;28;823;-61
2020/12/04 07:51:26;;;;;;;;;;;;;;;20.11;39.15;101056.47;5095778;28;791;-60
2020/12/04 07:53:52;;;;;;;;;;;;;;;19.91;39.48;101057.44;5095883;28;732;-61
2020/12/04 07:56:18;;;;;;;;;;;;;;;19.32;40.71;101062.81;5094577;28;966;-61
2020/12/04 07:58:43;;;;;;;;;;;;;;;20.38;38.54;101069.69;5077628;28;755;-60
2020/12/04 08:01:09;;;;;;;;;;;;;;;20.38;38.34;101072.47;5095693;28;803;-59
2020/12/04 08:03:34;;;;;;;;;;;;;;;20.00;39.24;101064.81;5094327;28;900;-59
2020/12/04 08:06:09;;;;;;;;;;;;;;;19.69;40.09;101069.75;5093668;28;1914;-59
2020/12/04 08:08:34;;;;;;;;;;;;;;;19.86;39.70;101063.03;5095946;28;759;-60
2020/12/04 08:11:07;;;;;;;;;;;;;;;20.75;37.82;101070.13;5095834;28;1013;-60
2020/12/04 08:13:33;;;;;;;;;;;;;;;20.07;39.20;101064.47;5113698;28;979;-55
2020/12/04 08:15:59;;;;;;;;;;;;;;;19.99;39.29;101049.38;5117504;28;880;-58
2020/12/04 08:18:24;;;;;;;;;;;;;;;19.39;41.07;101063.34;5107399;28;1035;-60
2020/12/04 08:20:50;;;;;;;;;;;;;;;20.42;38.53;101069.94;5099105;28;1064;-60
2020/12/04 08:23:21;;;;;;;;;;;;;;;20.37;38.43;101065.31;5099238;28;784;-60
2020/12/04 08:25:47;;;;;;;;;;;;;;;20.05;39.26;101068.63;5098976;28;1986;-60
2020/12/04 08:28:12;;;;;;;;;;;;;;;19.81;39.65;101072.16;5099774;28;791;-57
2020/12/04 08:30:39;;;;;;;;;;;;;;;20.03;39.41;101065.34;5099441;28;782;-60
2020/12/04 08:33:06;;;;;;;;;;;;;;;20.80;37.67;101067.31;5095466;28;902;-59
2020/12/04 08:35:31;;;;;;;;;;;;;;;20.40;38.70;101070.25;5089297;28;800;-59
2020/12/04 08:38:04;;;;;;;;;;;;;;;20.34;38.60;101060.34;5098554;28;870;-60
2020/12/04 08:40:30;;;;;;;;;;;;;;;19.38;40.92;101056.16;5098642;28;941;-59
2020/12/04 08:43:09;;;;;;;;;;;;;;;20.31;39.09;101060.94;5098498;28;847;-60
2020/12/04 08:45:34;;;;;;;;;;;;;;;20.39;38.41;101054.78;5098454;28;1906;-57
2020/12/04 08:48:07;;;;;;;;;;;;;;;20.08;39.43;101049.56;5098039;28;901;-61
2020/12/04 08:50:32;;;;;;;;;;;;;;;19.61;40.38;101051.84;5098498;28;858;-58
2020/12/04 08:52:57;;;;;;;;;;;;;;;19.78;40.01;101047.88;5097107;28;1229;-60
2020/12/04 08:55:24;;;;;;;;;;;;;;;20.69;38.01;101050.03;5098350;28;961;-60
2020/12/04 08:57:50;;;;;;;;;;;;;;;20.30;38.96;101051.00;5098207;28;768;-62
2020/12/04 09:00:16;;;;;;;;;;;;;;;19.95;39.49;101047.47;5097416;28;737;-61
2020/12/04 09:02:42;;;;;;;;;;;;;;;19.46;40.55;101044.53;5098768;28;843;-61
2020/12/04 09:05:09;;;;;;;;;;;;;;;20.02;39.41;101036.94;5096821;28;839;-58
2020/12/04 09:07:34;;;;;;;;;;;;;;;20.78;37.78;101036.41;5098323;28;1913;-60
2020/12/04 09:10:00;;;;;;;;;;;;;;;20.25;38.78;101034.50;5098230;28;992;-60
2020/12/04 09:12:25;;;;;;;;;;;;;;;19.94;39.58;101029.28;5103325;28;1063;-60
2020/12/04 09:14:51;;;;;;;;;;;;;;;18.94;41.92;101029.41;5098153;28;826;-62
2020/12/04 09:17:16;;;;;;;;;;;;;;;20.16;39.16;101023.25;5098458;28;1138;-53
2020/12/04 09:19:42;;;;;;;;;;;;;;;20.48;38.37;101013.53;5096238;28;821;-57
2020/12/04 09:22:07;;;;;;;;;;;;;;;20.08;39.28;101013.69;5097822;28;811;-57
2020/12/04 09:24:33;;;;;;;;;;;;;;;19.67;40.37;101008.53;5097211;28;526;-51
2020/12/04 09:26:58;;;;;;;;;;;;;;;19.51;40.77;101009.75;5097505;28;1918;-60
2020/12/04 09:29:24;;;;;;;;;;;;;;;20.64;38.22;101014.16;5097795;28;819;-60
2020/12/04 09:31:49;;;;;;;;;;;;;;;20.30;38.73;101009.56;5097960;28;861;-56
2020/12/04 09:34:14;;;;;;;;;;;;;;;20.21;38.94;101016.88;5097670;28;838;-60
2020/12/04 09:36:40;;;;;;;;;;;;;;;19.43;40.73;101008.44;5097214;28;898;-51
2020/12/04 09:39:05;;;;;;;;;;;;;;;20.16;39.39;101010.28;5097780;28;823;-58
2020/12/04 09:41:31;;;;;;;;;;;;;;;20.74;37.90;101008.53;5097575;28;1008;-59
2020/12/04 09:43:56;;;;;;;;;;;;;;;20.17;39.29;100992.63;5097307;28;794;-61
2020/12/04 09:46:22;;;;;;;;;;;;;;;20.09;39.50;101001.53;5096628;28;1975;-59
2020/12/04 09:48:47;;;;;;;;;;;;;;;19.69;40.35;100999.97;5096895;28;1124;-59
2020/12/04 09:51:12;;;;;;;;;;;;;;;20.61;38.23;101004.53;5097221;28;847;-58
2020/12/04 09:53:38;;;;;;;;;;;;;;;20.34;38.70;101005.97;5097395;28;783;-55
2020/12/04 09:56:03;;;;;;;;;;;;;;;20.28;38.85;101003.53;5096934;28;957;-57
2020/12/04 09:58:29;;;;;;;;;;;;;;;19.78;40.31;101003.72;5097211;28;811;-58
2020/12/04 10:00:54;;;;;;;;;;;;;;;19.72;40.43;101005.69;5096978;28;827;-58
2020/12/04 10:03:20;;;;;;;;;;;;;;;20.65;38.52;101004.75;5096668;28;859;-59
2020/12/04 10:05:45;;;;;;;;;;;;;;;20.29;38.96;100994.16;5095730;28;1984;-55
2020/12/04 10:08:10;;;;;;;;;;;;;;;20.13;39.27;101001.75;5096921;28;748;-60
2020/12/04 10:10:36;;;;;;;;;;;;;;;19.32;41.07;100997.47;5096796;28;992;-59
2020/12/04 10:13:01;;;;;;;;;;;;;;;20.12;39.54;100995.41;5108095;28;1090;-60
2020/12/04 10:15:27;;;;;;;;;;;;;;;20.78;38.03;100993.00;5117360;28;732;-60
2020/12/04 10:17:52;;;;;;;;;;;;;;;20.09;39.58;100998.78;5115590;28;1008;-60
2020/12/04 10:20:19;;;;;;;;;;;;;;;19.91;40.08;101002.25;5117090;28;779;-60
2020/12/04 10:22:44;;;;;;;;;;;;;;;19.29;41.44;100997.22;5117060;28;815;-61
2020/12/04 10:25:10;;;;;;;;;;;;;;;20.30;39.46;100995.78;5112485;28;1010;-60
2020/12/04 10:27:35;;;;;;;;;;;;;;;20.58;38.54;100996.00;5096445;28;1902;-60
2020/12/04 10:30:00;;;;;;;;;;;;;;;19.97;40.07;100990.88;5096064;28;874;-60
2020/12/04 10:32:26;;;;;;;;;;;;;;;19.88;40.15;100981.59;5097063;28;859;-58
2020/12/04 10:34:51;;;;;;;;;;;;;;;19.37;41.36;100977.31;5096136;28;883;-60
2020/12/04 10:37:17;;;;;;;;;;;;;;;20.53;38.90;100977.56;5096259;28;827;-54
2020/12/04 10:39:42;;;;;;;;;;;;;;;20.46;38.84;100975.16;5096533;28;1015;-60
2020/12/04 10:42:07;;;;;;;;;;;;;;;20.12;39.63;100961.47;5096603;28;744;-58
2020/12/04 10:44:33;;;;;;;;;;;;;;;19.45;41.06;100948.31;5096378;28;815;-56
2020/12/04 10:46:59;;;;;;;;;;;;;;;19.61;41.07;100937.94;5096713;28;1913;-52
2020/12/04 10:49:25;;;;;;;;;;;;;;;20.63;38.89;100946.22;5095647;28;1331;-54
2020/12/04 10:51:54;;;;;;;;;;;;;;;20.14;39.56;100932.44;5096332;28;843;-54
2020/12/04 10:54:19;;;;;;;;;;;;;;;20.03;39.91;100928.16;5096488;28;743;-60
2020/12/04 10:56:44;;;;;;;;;;;;;;;19.44;41.15;100925.41;5095806;28;953;-59
2020/12/04 10:59:10;;;;;;;;;;;;;;;20.13;39.90;100919.78;5096589;28;823;-57
2020/12/04 11:01:50;;;;;;;;;;;;;;;20.75;38.42;100927.28;5096697;28;747;-60
2020/12/04 11:06:59;;;;;;;;;;;;;;;19.76;40.39;100921.25;5096350;28;1976;-61
2020/12/04 11:09:25;;;;;;;;;;;;;;;19.79;40.61;100917.94;5093012;28;1037;-62
2020/12/04 11:11:51;;;;;;;;;;;;;;;20.69;38.60;100917.41;5076575;28;1005;-61
2020/12/04 11:14:16;;;;;;;;;;;;;;;20.25;39.66;100918.53;5098082;28;830;-60
2020/12/04 11:16:42;;;;;;;;;;;;;;;20.22;39.69;100916.38;5096181;28;858;-60
2020/12/04 11:19:08;;;;;;;;;;;;;;;19.54;40.82;100915.41;5095215;28;999;-60
2020/12/04 11:21:33;;;;;;;;;;;;;;;20.11;39.95;100913.72;5095961;28;823;-59
2020/12/04 11:23:59;;;;;;;;;;;;;;;20.66;38.43;100924.34;5095917;28;728;-59
2020/12/04 11:26:24;;;;;;;;;;;;;;;20.11;40.02;100926.69;5095317;28;1910;-59
2020/12/04 11:28:50;;;;;;;;;;;;;;;19.89;40.17;100918.94;5095955;28;819;-60
2020/12/04 11:31:15;;;;;;;;;;;;;;;19.28;41.89;100915.63;5095876;28;767;-60
2020/12/04 11:33:41;;;;;;;;;;;;;;;20.43;39.26;100909.44;5095448;28;795;-58
2020/12/04 11:36:06;;;;;;;;;;;;;;;20.47;39.27;100904.97;5095892;28;795;-59
2020/12/04 11:38:32;;;;;;;;;;;;;;;20.18;39.78;100903.13;5095856;28;780;-59
2020/12/04 11:40:58;;;;;;;;;;;;;;;19.65;41.02;100901.19;5095157;28;957;-59
2020/12/04 11:43:23;;;;;;;;;;;;;;;19.50;41.48;100904.13;5095641;28;819;-61
2020/12/04 11:45:48;;;;;;;;;;;;;;;20.59;39.02;100890.72;5095658;28;1913;-60
2020/12/04 11:48:14;;;;;;;;;;;;;;;21.14;38.05;100890.19;5099599;28;751;-59
2020/12/04 11:50:39;;;;;;;;;;;;;;;21.17;37.86;100891.53;5099850;28;782;-59
2020/12/04 11:53:05;;;;;;;;;;;;;;;20.57;39.00;100889.41;5099365;28;877;-59
2020/12/04 11:55:30;;;;;;;;;;;;;;;19.96;40.32;100891.81;5098330;28;970;-59
2020/12/04 11:57:56;;;;;;;;;;;;;;;19.44;41.54;100878.53;5099619;28;894;-58
2020/12/04 12:00:21;;;;;;;;;;;;;;;20.40;39.90;100885.19;5099502;28;819;-60
2020/12/04 12:02:47;;;;;;;;;;;;;;;20.74;39.11;100889.72;5099227;28;823;-59
2020/12/04 12:05:12;;;;;;;;;;;;;;;20.29;39.95;100894.72;5099170;28;862;-53
2020/12/04 12:07:38;;;;;;;;;;;;;;;20.01;40.49;100886.25;5099495;28;1909;-58
2020/12/04 12:10:04;;;;;;;;;;;;;;;19.64;41.43;100898.75;5097743;28;981;-59
2020/12/04 12:12:29;;;;;;;;;;;;;;;20.45;39.62;100890.63;5100863;28;1156;-50
2020/12/04 12:14:55;;;;;;;;;;;;;;;20.83;38.60;100890.69;5099078;28;803;-53
2020/12/04 12:17:20;;;;;;;;;;;;;;;20.37;39.90;100899.59;5098946;28;1233;-54
2020/12/04 12:19:46;;;;;;;;;;;;;;;20.13;40.43;100894.94;5098865;28;834;-57
2020/12/04 12:22:11;;;;;;;;;;;;;;;19.43;41.67;100896.19;5099628;28;803;-56
2020/12/04 12:24:37;;;;;;;;;;;;;;;20.25;40.41;100901.97;5099445;28;743;-58
2020/12/04 12:27:03;;;;;;;;;;;;;;;20.63;39.40;100890.94;5097251;28;1985;-58
2020/12/04 12:29:28;;;;;;;;;;;;;;;20.15;40.24;100898.19;5099255;28;910;-51
2020/12/04 12:31:54;;;;;;;;;;;;;;;19.88;40.96;100900.72;5099345;28;806;-55
2020/12/04 12:34:19;;;;;;;;;;;;;;;19.51;42.05;100904.94;5098676;28;767;-57
2020/12/04 12:36:45;;;;;;;;;;;;;;;20.49;39.68;100902.72;5099607;28;808;-55
2020/12/04 12:39:10;;;;;;;;;;;;;;;20.48;39.56;100911.31;5099109;28;827;-58
2020/12/04 12:41:36;;;;;;;;;;;;;;;20.17;40.21;100904.28;5097508;28;1211;-55
2020/12/04 12:44:01;;;;;;;;;;;;;;;19.85;40.91;100906.84;5098981;28;767;-57
2020/12/04 12:46:27;;;;;;;;;;;;;;;19.31;42.26;100913.09;5098930;28;1917;-58
2020/12/04 12:48:52;;;;;;;;;;;;;;;20.37;39.95;100910.66;5097057;28;849;-55
2020/12/04 12:51:18;;;;;;;;;;;;;;;20.65;39.52;100908.88;5098684;28;782;-56
2020/12/04 12:53:43;;;;;;;;;;;;;;;20.40;39.90;100909.22;5098841;28;763;-62
2020/12/04 12:56:09;;;;;;;;;;;;;;;19.70;41.39;100900.34;5093530;28;898;-54